createdAt,value
2023-02-19T00:03:57.000Z,8.23
2023-02-19T00:08:51.000Z,8.27
2023-02-19T00:13:45.000Z,8.26
2023-02-19T00:18:38.000Z,8.16
2023-02-19T00:23:33.000Z,8.08
2023-02-19T00:28:27.000Z,8.04
2023-02-19T00:33:21.000Z,8.06
2023-02-19T00:38:15.000Z,8.02
2023-02-19T00:43:09.000Z,8
2023-02-19T00:48:04.000Z,7.96
2023-02-19T00:52:58.000Z,7.94
2023-02-19T00:57:52.000Z,7.89
2023-02-19T01:02:46.000Z,7.88
2023-02-19T01:07:40.000Z,7.89
2023-02-19T01:12:34.000Z,7.87
2023-02-19T01:17:29.000Z,7.89
2023-02-19T01:22:22.000Z,7.87
2023-02-19T01:27:16.000Z,7.85
2023-02-19T01:32:10.000Z,7.88
2023-02-19T01:37:05.000Z,7.8
2023-02-19T01:41:59.000Z,7.77
2023-02-19T01:46:55.000Z,7.78
2023-02-19T01:51:44.000Z,7.76
2023-02-19T01:56:37.000Z,7.72
2023-02-19T02:01:31.000Z,7.72
2023-02-19T02:06:23.000Z,7.71
2023-02-19T02:11:17.000Z,7.74
2023-02-19T02:16:09.000Z,7.72
2023-02-19T02:21:02.000Z,7.72
2023-02-19T02:25:57.000Z,7.71
2023-02-19T02:30:51.000Z,7.72
2023-02-19T02:35:45.000Z,7.74
2023-02-19T02:40:40.000Z,7.72
2023-02-19T02:45:32.000Z,7.73
2023-02-19T02:50:26.000Z,7.71
2023-02-19T02:55:20.000Z,7.71
2023-02-19T03:00:15.000Z,7.71
2023-02-19T03:05:08.000Z,7.72
2023-02-19T03:10:02.000Z,7.71
2023-02-19T03:14:57.000Z,7.67
2023-02-19T03:19:52.000Z,7.67
2023-02-19T03:24:43.000Z,7.68
2023-02-19T03:29:37.000Z,7.67
2023-02-19T03:34:35.000Z,7.68
2023-02-19T03:39:26.000Z,7.67
2023-02-19T03:44:20.000Z,7.63
2023-02-19T03:49:14.000Z,7.63
2023-02-19T03:54:08.000Z,7.63
2023-02-19T03:59:02.000Z,7.62
2023-02-19T04:03:56.000Z,7.6
2023-02-19T04:08:50.000Z,7.59
2023-02-19T04:13:44.000Z,7.62
2023-02-19T04:18:38.000Z,7.63
2023-02-19T04:23:33.000Z,7.63
2023-02-19T04:28:26.000Z,7.63
2023-02-19T04:33:20.000Z,7.63
2023-02-19T04:38:13.000Z,7.64
2023-02-19T04:43:07.000Z,7.61
2023-02-19T04:48:00.000Z,7.63
2023-02-19T04:52:54.000Z,7.63
2023-02-19T04:57:48.000Z,7.64
2023-02-19T05:02:43.000Z,7.66
2023-02-19T05:07:37.000Z,7.68
2023-02-19T05:12:31.000Z,7.68
2023-02-19T05:17:25.000Z,7.7
2023-02-19T05:22:18.000Z,7.68
2023-02-19T05:27:13.000Z,7.71
2023-02-19T05:32:08.000Z,7.75
2023-02-19T05:37:01.000Z,7.73
2023-02-19T05:41:56.000Z,7.7
2023-02-19T05:46:49.000Z,7.65
2023-02-19T05:51:43.000Z,7.64
2023-02-19T05:56:37.000Z,7.64
2023-02-19T06:01:31.000Z,7.63
2023-02-19T06:06:25.000Z,7.65
2023-02-19T06:11:22.000Z,7.66
2023-02-19T06:16:12.000Z,7.65
2023-02-19T06:21:07.000Z,7.66
2023-02-19T06:25:58.000Z,7.65
2023-02-19T06:30:52.000Z,7.61
2023-02-19T06:35:46.000Z,7.63
2023-02-19T06:40:39.000Z,7.65
2023-02-19T06:45:34.000Z,7.62
2023-02-19T06:50:28.000Z,7.61
2023-02-19T06:55:22.000Z,7.64
2023-02-19T07:00:17.000Z,7.76
2023-02-19T07:05:10.000Z,7.79
2023-02-19T07:10:04.000Z,7.73
2023-02-19T07:14:58.000Z,7.78
2023-02-19T07:19:53.000Z,7.79
2023-02-19T07:24:48.000Z,8.01
2023-02-19T07:29:42.000Z,7.97
2023-02-19T07:34:37.000Z,8
2023-02-19T07:39:31.000Z,7.99
2023-02-19T07:44:25.000Z,8.04
2023-02-19T07:49:19.000Z,8.01
2023-02-19T07:54:14.000Z,7.97
2023-02-19T07:59:08.000Z,7.94
2023-02-19T08:04:02.000Z,7.94
2023-02-19T08:08:57.000Z,7.95
2023-02-19T08:13:51.000Z,7.91
2023-02-19T08:18:45.000Z,7.85
2023-02-19T08:23:39.000Z,8.17
2023-02-19T08:28:34.000Z,8.04
2023-02-19T08:33:29.000Z,7.87
2023-02-19T08:38:22.000Z,7.76
2023-02-19T08:43:17.000Z,7.75
2023-02-19T08:48:11.000Z,7.73
2023-02-19T08:53:05.000Z,7.8
2023-02-19T08:58:00.000Z,7.95
2023-02-19T09:02:54.000Z,8.07
2023-02-19T09:07:49.000Z,8.02
2023-02-19T09:12:43.000Z,7.97
2023-02-19T09:17:38.000Z,7.95
2023-02-19T09:22:32.000Z,7.97
2023-02-19T09:27:26.000Z,8.02
2023-02-19T09:32:18.000Z,8.16
2023-02-19T09:37:12.000Z,8.39
2023-02-19T09:42:07.000Z,8.73
2023-02-19T09:47:02.000Z,8.78
2023-02-19T09:51:56.000Z,9.04
2023-02-19T09:56:49.000Z,9.23
2023-02-19T10:01:44.000Z,9.36
2023-02-19T10:06:38.000Z,9.26
2023-02-19T10:11:33.000Z,9.39
2023-02-19T10:16:27.000Z,9.4
2023-02-19T10:21:21.000Z,9.57
2023-02-19T10:26:16.000Z,9.64
2023-02-19T10:31:10.000Z,9.59
2023-02-19T10:36:05.000Z,9.07
2023-02-19T10:41:02.000Z,9.13
2023-02-19T10:45:50.000Z,9.03
2023-02-19T10:50:44.000Z,9.23
2023-02-19T10:55:39.000Z,9.08
2023-02-19T11:00:32.000Z,9.04
2023-02-19T11:05:26.000Z,8.92
2023-02-19T11:10:21.000Z,8.84
2023-02-19T11:15:15.000Z,9.01
2023-02-19T11:20:10.000Z,9.2
2023-02-19T11:25:04.000Z,8.96
2023-02-19T11:29:58.000Z,8.97
2023-02-19T11:34:52.000Z,8.98
2023-02-19T11:39:46.000Z,8.88
2023-02-19T11:44:40.000Z,8.87
2023-02-19T11:49:34.000Z,8.91
2023-02-19T11:54:28.000Z,8.7
2023-02-19T11:59:21.000Z,8.84
2023-02-19T12:04:16.000Z,8.68
2023-02-19T12:09:10.000Z,8.79
2023-02-19T12:14:05.000Z,8.67
2023-02-19T12:18:59.000Z,8.63
2023-02-19T12:23:51.000Z,8.73
2023-02-19T12:28:45.000Z,8.68
2023-02-19T12:33:40.000Z,8.89
2023-02-19T12:38:34.000Z,8.72
2023-02-19T12:43:29.000Z,8.71
2023-02-19T12:48:23.000Z,8.57
2023-02-19T12:53:21.000Z,8.55
2023-02-19T12:58:10.000Z,8.64
2023-02-19T13:03:04.000Z,9.52
2023-02-19T13:07:59.000Z,9.56
2023-02-19T13:12:53.000Z,9.77
2023-02-19T13:17:47.000Z,9.49
2023-02-19T13:22:42.000Z,9.79
2023-02-19T13:27:36.000Z,9.76
2023-02-19T13:32:29.000Z,9.41
2023-02-19T13:37:23.000Z,9.2
2023-02-19T13:42:17.000Z,8.99
2023-02-19T13:47:09.000Z,8.88
2023-02-19T13:52:03.000Z,8.6
2023-02-19T13:56:57.000Z,8.49
2023-02-19T14:01:51.000Z,8.46
2023-02-19T14:06:46.000Z,8.23
2023-02-19T14:11:40.000Z,8.27
2023-02-19T14:16:34.000Z,8.26
2023-02-19T14:21:29.000Z,8.4
2023-02-19T14:26:23.000Z,8.62
2023-02-19T14:31:18.000Z,8.61
2023-02-19T14:36:12.000Z,8.3
2023-02-19T14:41:06.000Z,8.2
2023-02-19T14:46:00.000Z,8.26
2023-02-19T14:50:52.000Z,8.38
2023-02-19T14:55:46.000Z,8.77
2023-02-19T15:00:40.000Z,8.67
2023-02-19T15:05:34.000Z,8.5
2023-02-19T15:10:29.000Z,8.62
2023-02-19T15:15:23.000Z,8.62
2023-02-19T15:20:18.000Z,8.49
2023-02-19T15:25:12.000Z,8.39
2023-02-19T15:30:05.000Z,8.36
2023-02-19T15:35:00.000Z,8.42
2023-02-19T15:39:54.000Z,8.45
2023-02-19T15:44:48.000Z,8.51
2023-02-19T15:49:43.000Z,8.48
2023-02-19T15:54:37.000Z,8.54
2023-02-19T15:59:31.000Z,8.23
2023-02-19T16:04:25.000Z,8.13
2023-02-19T16:09:18.000Z,8.14
2023-02-19T16:14:12.000Z,8.08
2023-02-19T16:19:07.000Z,8.02
2023-02-19T16:24:01.000Z,7.99
2023-02-19T16:28:55.000Z,7.86
2023-02-19T16:33:47.000Z,7.71
2023-02-19T16:38:40.000Z,7.66
2023-02-19T16:43:34.000Z,7.65
2023-02-19T16:48:28.000Z,7.63
2023-02-19T16:53:22.000Z,7.61
2023-02-19T16:58:16.000Z,7.63
2023-02-19T17:03:10.000Z,7.61
2023-02-19T17:08:05.000Z,7.63
2023-02-19T17:12:58.000Z,7.71
2023-02-19T17:17:52.000Z,7.7
2023-02-19T17:22:46.000Z,7.7
2023-02-19T17:27:43.000Z,7.69
2023-02-19T17:32:34.000Z,7.67
2023-02-19T17:37:27.000Z,7.69
2023-02-19T17:42:21.000Z,7.67
2023-02-19T17:47:15.000Z,7.69
2023-02-19T17:52:09.000Z,7.66
2023-02-19T17:57:02.000Z,7.69
2023-02-19T18:01:55.000Z,7.63
2023-02-19T18:06:50.000Z,7.66
2023-02-19T18:11:43.000Z,7.64
2023-02-19T18:16:37.000Z,7.6
2023-02-19T18:21:31.000Z,7.48
2023-02-19T18:26:25.000Z,7.32
2023-02-19T18:31:19.000Z,7.23
2023-02-19T18:36:13.000Z,7.19
2023-02-19T18:41:07.000Z,7.13
2023-02-19T18:46:01.000Z,7.11
2023-02-19T18:50:55.000Z,7.1
2023-02-19T18:55:48.000Z,7.09
2023-02-19T19:00:42.000Z,7.12
2023-02-19T19:05:36.000Z,7.1
2023-02-19T19:10:31.000Z,7.11
2023-02-19T19:15:23.000Z,7.09
2023-02-19T19:20:16.000Z,7.12
2023-02-19T19:25:08.000Z,7.15
2023-02-19T19:30:02.000Z,7.15
2023-02-19T19:34:56.000Z,7.09
2023-02-19T19:39:50.000Z,7.06
2023-02-19T19:44:44.000Z,6.98
2023-02-19T19:49:50.000Z,6.94
2023-02-19T19:54:32.000Z,6.87
2023-02-19T19:59:23.000Z,6.82
2023-02-19T20:04:17.000Z,6.75
2023-02-19T20:09:11.000Z,6.74
2023-02-19T20:14:05.000Z,6.8
2023-02-19T20:18:59.000Z,6.78
2023-02-19T20:33:31.000Z,6.76
2023-02-19T20:38:25.000Z,6.81
2023-02-19T20:43:21.000Z,6.79
2023-02-19T20:48:15.000Z,6.77
2023-02-19T20:53:08.000Z,6.75
2023-02-19T20:58:02.000Z,6.74
2023-02-19T21:12:28.000Z,6.66
2023-02-19T21:17:23.000Z,6.64
2023-02-19T21:22:17.000Z,6.62
2023-02-19T21:36:52.000Z,6.65
2023-02-19T21:41:45.000Z,6.57
2023-02-19T21:46:37.000Z,6.6
2023-02-19T21:51:30.000Z,6.59
2023-02-19T22:06:04.000Z,6.51
2023-02-19T22:10:58.000Z,6.48
2023-02-19T22:15:52.000Z,6.43
2023-02-19T22:30:27.000Z,6.42
2023-02-19T22:45:08.000Z,6.38
2023-02-19T22:59:39.000Z,6.2
2023-02-19T23:14:14.000Z,5.74
2023-02-19T23:28:50.000Z,5.53
2023-02-19T23:43:28.000Z,5.33
2023-02-19T23:58:05.000Z,5.03
